sensor_id;sensor_type;location;lat;lon;timestamp;pressure;altitude;pressure_sealevel;temperature;humidity
62976;BME280;49071;0.000;0.000;2023-02-11T05:59:07;101871.28;;;16.91;30.92
62976;BME280;49071;0.000;0.000;2023-02-11T06:02:07;101880.81;;;16.93;30.75
62976;BME280;49071;0.000;0.000;2023-02-11T06:05:08;101882.56;;;16.94;30.61
62976;BME280;49071;0.000;0.000;2023-02-11T06:08:08;101900.00;;;16.94;30.57
62976;BME280;49071;0.000;0.000;2023-02-11T06:11:08;101887.00;;;16.91;30.81
62976;BME280;49071;0.000;0.000;2023-02-11T06:14:08;101908.06;;;16.86;30.51
62976;BME280;49071;0.000;0.000;2023-02-11T06:17:09;101902.03;;;16.83;30.62
62976;BME280;49071;0.000;0.000;2023-02-11T06:20:10;101903.91;;;16.78;30.64
62976;BME280;49071;0.000;0.000;2023-02-11T06:23:10;101903.94;;;16.73;30.75
62976;BME280;49071;0.000;0.000;2023-02-11T06:26:14;101915.47;;;16.66;30.82
62976;BME280;49071;0.000;0.000;2023-02-11T06:29:15;101924.34;;;16.59;30.94
62976;BME280;49071;0.000;0.000;2023-02-11T06:32:15;101944.50;;;16.55;31.04
62976;BME280;49071;0.000;0.000;2023-02-11T06:35:15;101940.25;;;16.49;31.17
62976;BME280;49071;0.000;0.000;2023-02-11T06:38:15;101932.50;;;16.43;31.30
62976;BME280;49071;0.000;0.000;2023-02-11T06:41:16;101935.28;;;16.36;31.38
62976;BME280;49071;0.000;0.000;2023-02-11T06:44:19;101934.56;;;16.29;31.48
62976;BME280;49071;0.000;0.000;2023-02-11T06:47:19;101941.66;;;16.24;31.54
62976;BME280;49071;0.000;0.000;2023-02-11T06:50:19;101938.22;;;16.20;31.61
62976;BME280;49071;0.000;0.000;2023-02-11T06:53:19;101916.41;;;16.20;31.59
62976;BME280;49071;0.000;0.000;2023-02-11T06:56:22;101910.25;;;16.24;31.54
62976;BME280;49071;0.000;0.000;2023-02-11T06:59:22;101916.28;;;16.27;31.55
62976;BME280;49071;0.000;0.000;2023-02-11T07:02:22;101915.25;;;16.35;31.39
62976;BME280;49071;0.000;0.000;2023-02-11T07:05:23;101910.72;;;16.43;31.26
62976;BME280;49071;0.000;0.000;2023-02-11T07:08:23;101907.97;;;16.49;31.17
62976;BME280;49071;0.000;0.000;2023-02-11T07:11:24;101904.31;;;16.56;30.91
62976;BME280;49071;0.000;0.000;2023-02-11T07:14:25;101893.69;;;16.64;30.88
62976;BME280;49071;0.000;0.000;2023-02-11T07:17:25;101897.00;;;16.72;30.74
62976;BME280;49071;0.000;0.000;2023-02-11T07:20:25;101894.22;;;16.80;30.76
62976;BME280;49071;0.000;0.000;2023-02-11T07:23:25;101880.06;;;16.88;30.64
62976;BME280;49071;0.000;0.000;2023-02-11T07:26:26;101882.50;;;16.96;30.63
62976;BME280;49071;0.000;0.000;2023-02-11T07:29:27;101883.03;;;17.10;30.45
62976;BME280;49071;0.000;0.000;2023-02-11T07:32:28;101871.41;;;17.22;30.62
62976;BME280;49071;0.000;0.000;2023-02-11T07:35:28;101879.63;;;17.42;30.23
62976;BME280;49071;0.000;0.000;2023-02-11T07:38:28;101874.03;;;17.56;30.65
62976;BME280;49071;0.000;0.000;2023-02-11T07:41:28;101869.25;;;17.72;29.98
62976;BME280;49071;0.000;0.000;2023-02-11T07:44:28;101857.53;;;17.85;29.91
62976;BME280;49071;0.000;0.000;2023-02-11T07:47:28;101851.91;;;17.99;29.81
62976;BME280;49071;0.000;0.000;2023-02-11T07:50:29;101846.38;;;18.08;29.76
62976;BME280;49071;0.000;0.000;2023-02-11T07:53:29;101861.03;;;18.15;30.08
62976;BME280;49071;0.000;0.000;2023-02-11T07:56:29;101850.34;;;18.23;29.64
62976;BME280;49071;0.000;0.000;2023-02-11T07:59:30;101849.97;;;18.35;29.64
62976;BME280;49071;0.000;0.000;2023-02-11T08:02:30;101852.38;;;18.43;29.42
62976;BME280;49071;0.000;0.000;2023-02-11T08:05:30;101843.34;;;18.52;29.64
62976;BME280;49071;0.000;0.000;2023-02-11T08:08:30;101843.25;;;18.55;29.42
62976;BME280;49071;0.000;0.000;2023-02-11T08:11:30;101864.91;;;18.63;29.82
62976;BME280;49071;0.000;0.000;2023-02-11T08:14:31;101863.25;;;18.59;29.65
62976;BME280;49071;0.000;0.000;2023-02-11T08:17:33;101880.88;;;18.55;29.78
62976;BME280;49071;0.000;0.000;2023-02-11T08:20:34;101890.53;;;18.55;29.57
62976;BME280;49071;0.000;0.000;2023-02-11T08:23:35;101903.50;;;18.61;29.52
62976;BME280;49071;0.000;0.000;2023-02-11T08:26:35;101892.84;;;18.65;29.61
62976;BME280;49071;0.000;0.000;2023-02-11T08:29:36;101906.69;;;18.72;29.73
62976;BME280;49071;0.000;0.000;2023-02-11T08:32:36;101914.53;;;18.74;29.60
62976;BME280;49071;0.000;0.000;2023-02-11T08:35:38;101917.19;;;18.74;29.35
62976;BME280;49071;0.000;0.000;2023-02-11T08:38:39;101909.47;;;18.66;29.69
62976;BME280;49071;0.000;0.000;2023-02-11T08:41:40;101907.94;;;18.59;29.88
62976;BME280;49071;0.000;0.000;2023-02-11T08:44:40;101900.25;;;18.53;29.64
62976;BME280;49071;0.000;0.000;2023-02-11T08:47:40;101885.53;;;18.47;29.84
62976;BME280;49071;0.000;0.000;2023-02-11T08:50:40;101883.84;;;18.45;29.84
62976;BME280;49071;0.000;0.000;2023-02-11T08:53:41;101876.91;;;18.42;29.67
62976;BME280;49071;0.000;0.000;2023-02-11T08:56:41;101868.16;;;18.41;29.88
62976;BME280;49071;0.000;0.000;2023-02-11T08:59:41;101883.00;;;18.44;29.97
62976;BME280;49071;0.000;0.000;2023-02-11T09:02:41;101889.94;;;18.45;29.71
62976;BME280;49071;0.000;0.000;2023-02-11T09:05:45;101872.38;;;18.47;29.85
62976;BME280;49071;0.000;0.000;2023-02-11T09:08:47;101882.75;;;18.52;29.90
62976;BME280;49071;0.000;0.000;2023-02-11T09:11:48;101887.81;;;18.58;29.44
62976;BME280;49071;0.000;0.000;2023-02-11T09:14:48;101871.06;;;18.62;29.55
62976;BME280;49071;0.000;0.000;2023-02-11T09:17:48;101884.88;;;18.69;29.44
62976;BME280;49071;0.000;0.000;2023-02-11T09:20:48;101863.75;;;18.73;29.94
62976;BME280;49071;0.000;0.000;2023-02-11T09:23:49;101869.56;;;18.83;29.23
62976;BME280;49071;0.000;0.000;2023-02-11T09:26:49;101867.50;;;18.93;29.46
62976;BME280;49071;0.000;0.000;2023-02-11T09:29:49;101867.22;;;19.02;29.32
62976;BME280;49071;0.000;0.000;2023-02-11T09:32:49;101872.97;;;19.13;29.21
62976;BME280;49071;0.000;0.000;2023-02-11T09:35:49;101876.41;;;19.15;29.09
62976;BME280;49071;0.000;0.000;2023-02-11T09:38:59;101886.94;;;19.15;28.96
62976;BME280;49071;0.000;0.000;2023-02-11T09:45:02;101892.38;;;19.10;28.91
62976;BME280;49071;0.000;0.000;2023-02-11T09:48:04;101899.59;;;19.04;29.32
62976;BME280;49071;0.000;0.000;2023-02-11T09:51:15;101901.50;;;18.99;29.26
62976;BME280;49071;0.000;0.000;2023-02-11T09:55:01;101909.66;;;18.90;29.45
62976;BME280;49071;0.000;0.000;2023-02-11T09:57:41;101920.41;;;18.82;29.28
62976;BME280;49071;0.000;0.000;2023-02-11T10:00:42;101928.56;;;18.73;29.52
62976;BME280;49071;0.000;0.000;2023-02-11T10:06:54;101939.53;;;18.57;29.57
62976;BME280;49071;0.000;0.000;2023-02-11T10:19:34;101940.69;;;18.47;29.69
62976;BME280;49071;0.000;0.000;2023-02-11T10:22:41;101938.06;;;18.47;29.67
62976;BME280;49071;0.000;0.000;2023-02-11T10:25:43;101930.13;;;18.49;29.76
62976;BME280;49071;0.000;0.000;2023-02-11T10:28:48;101930.03;;;18.53;29.91
62976;BME280;49071;0.000;0.000;2023-02-11T10:31:49;101914.19;;;18.55;29.74
62976;BME280;49071;0.000;0.000;2023-02-11T10:34:50;101911.31;;;18.62;29.53
62976;BME280;49071;0.000;0.000;2023-02-11T10:37:51;101891.06;;;18.66;29.78
62976;BME280;49071;0.000;0.000;2023-02-11T10:40:52;101883.88;;;18.74;29.87
62976;BME280;49071;0.000;0.000;2023-02-11T10:43:52;101903.84;;;18.80;29.44
62976;BME280;49071;0.000;0.000;2023-02-11T10:46:53;101907.03;;;18.90;29.57
62976;BME280;49071;0.000;0.000;2023-02-11T10:49:54;101879.53;;;19.00;29.38
62976;BME280;49071;0.000;0.000;2023-02-11T10:53:15;101877.44;;;19.11;29.23
62976;BME280;49071;0.000;0.000;2023-02-11T10:56:26;101875.47;;;19.18;29.31
62976;BME280;49071;0.000;0.000;2023-02-11T10:59:31;101859.63;;;19.19;29.04
62976;BME280;49071;0.000;0.000;2023-02-11T11:02:33;101857.84;;;19.20;29.14
62976;BME280;49071;0.000;0.000;2023-02-11T11:05:35;101856.25;;;19.16;29.18
62976;BME280;49071;0.000;0.000;2023-02-11T11:11:40;101841.75;;;19.04;29.55
62976;BME280;49071;0.000;0.000;2023-02-11T11:14:57;101856.00;;;18.97;29.50
62976;BME280;49071;0.000;0.000;2023-02-11T11:21:40;101848.84;;;18.74;29.66
62976;BME280;49071;0.000;0.000;2023-02-11T11:24:44;101849.81;;;18.70;29.78
62976;BME280;49071;0.000;0.000;2023-02-11T11:27:49;101853.56;;;18.61;29.91
62976;BME280;49071;0.000;0.000;2023-02-11T11:30:49;101855.59;;;18.53;29.67
62976;BME280;49071;0.000;0.000;2023-02-11T11:34:00;101866.22;;;18.48;30.01
62976;BME280;49071;0.000;0.000;2023-02-11T11:40:27;101837.50;;;18.42;30.23
62976;BME280;49071;0.000;0.000;2023-02-11T11:43:27;101843.59;;;18.44;30.28
62976;BME280;49071;0.000;0.000;2023-02-11T11:46:29;101840.03;;;18.45;30.10
62976;BME280;49071;0.000;0.000;2023-02-11T11:49:32;101824.25;;;18.47;29.86
62976;BME280;49071;0.000;0.000;2023-02-11T11:52:40;101828.59;;;18.48;30.28
62976;BME280;49071;0.000;0.000;2023-02-11T11:55:43;101840.72;;;18.52;29.95
62976;BME280;49071;0.000;0.000;2023-02-11T11:58:44;101840.53;;;18.58;29.99
62976;BME280;49071;0.000;0.000;2023-02-11T12:01:56;101848.25;;;18.62;30.05
62976;BME280;49071;0.000;0.000;2023-02-11T12:08:23;101869.72;;;18.78;29.96
62976;BME280;49071;0.000;0.000;2023-02-11T12:11:34;101874.69;;;18.87;29.82
62976;BME280;49071;0.000;0.000;2023-02-11T12:17:53;101883.66;;;19.08;29.65
62976;BME280;49071;0.000;0.000;2023-02-11T12:24:13;101876.81;;;19.29;29.52
62976;BME280;49071;0.000;0.000;2023-02-11T12:27:22;101872.41;;;19.30;29.29
62976;BME280;49071;0.000;0.000;2023-02-11T12:46:31;101875.09;;;19.02;29.57
62976;BME280;49071;0.000;0.000;2023-02-11T12:53:03;101874.78;;;18.84;29.59
62976;BME280;49071;0.000;0.000;2023-02-11T12:56:20;101868.03;;;18.76;29.72
62976;BME280;49071;0.000;0.000;2023-02-11T13:02:26;101885.25;;;18.56;30.04
62976;BME280;49071;0.000;0.000;2023-02-11T13:05:39;101896.88;;;18.48;30.09
62976;BME280;49071;0.000;0.000;2023-02-11T13:08:57;101899.59;;;18.45;30.29
62976;BME280;49071;0.000;0.000;2023-02-11T13:11:59;101888.31;;;18.41;30.20
62976;BME280;49071;0.000;0.000;2023-02-11T13:15:22;101899.75;;;18.40;30.19
62976;BME280;49071;0.000;0.000;2023-02-11T13:21:44;101890.03;;;18.42;30.13
62976;BME280;49071;0.000;0.000;2023-02-11T13:24:51;101883.84;;;18.45;30.32
62976;BME280;49071;0.000;0.000;2023-02-11T13:31:13;101887.91;;;18.55;30.25
62976;BME280;49071;0.000;0.000;2023-02-11T13:34:25;101885.13;;;18.61;30.32
62976;BME280;49071;0.000;0.000;2023-02-11T13:37:45;101869.94;;;18.71;30.28
62976;BME280;49071;0.000;0.000;2023-02-11T13:44:02;101881.66;;;18.88;30.16
62976;BME280;49071;0.000;0.000;2023-02-11T13:47:04;101878.75;;;18.98;29.93
62976;BME280;49071;0.000;0.000;2023-02-11T13:50:04;101877.53;;;19.08;29.69
62976;BME280;49071;0.000;0.000;2023-02-11T13:53:06;101878.13;;;19.16;29.64
62976;BME280;49071;0.000;0.000;2023-02-11T13:56:09;101875.41;;;19.19;29.68
62976;BME280;49071;0.000;0.000;2023-02-11T14:02:33;101890.41;;;19.17;29.69
62976;BME280;49071;0.000;0.000;2023-02-11T14:09:33;101884.50;;;19.09;29.82
62976;BME280;49071;0.000;0.000;2023-02-11T14:12:34;101882.13;;;19.01;29.93
62976;BME280;49071;0.000;0.000;2023-02-11T14:15:38;101900.69;;;18.97;29.98
62976;BME280;49071;0.000;0.000;2023-02-11T14:22:27;101919.63;;;18.80;30.08
62976;BME280;49071;0.000;0.000;2023-02-11T14:25:21;101915.44;;;18.73;30.08
62976;BME280;49071;0.000;0.000;2023-02-11T14:28:22;101920.03;;;18.64;30.14
62976;BME280;49071;0.000;0.000;2023-02-11T14:31:25;101913.28;;;18.56;30.39
62976;BME280;49071;0.000;0.000;2023-02-11T14:43:51;101923.25;;;18.45;30.38
62976;BME280;49071;0.000;0.000;2023-02-11T14:46:53;101917.97;;;18.46;30.57
62976;BME280;49071;0.000;0.000;2023-02-11T14:49:53;101928.34;;;18.49;30.50
62976;BME280;49071;0.000;0.000;2023-02-11T14:52:54;101929.97;;;18.55;30.28
62976;BME280;49071;0.000;0.000;2023-02-11T14:55:54;101940.38;;;18.58;30.50
62976;BME280;49071;0.000;0.000;2023-02-11T14:58:55;101940.22;;;18.64;30.31
62976;BME280;49071;0.000;0.000;2023-02-11T15:01:55;101954.16;;;18.66;31.17
62976;BME280;49071;0.000;0.000;2023-02-11T15:05:12;101942.59;;;18.73;30.55
62976;BME280;49071;0.000;0.000;2023-02-11T15:08:12;101953.66;;;18.83;30.31
62976;BME280;49071;0.000;0.000;2023-02-11T15:11:14;101956.03;;;18.92;30.17
62976;BME280;49071;0.000;0.000;2023-02-11T15:14:23;101953.06;;;19.03;30.07
62976;BME280;49071;0.000;0.000;2023-02-11T15:17:25;101959.75;;;19.13;30.09
62976;BME280;49071;0.000;0.000;2023-02-11T15:20:27;101956.16;;;19.17;29.79
62976;BME280;49071;0.000;0.000;2023-02-11T15:23:28;101959.53;;;19.21;29.84
62976;BME280;49071;0.000;0.000;2023-02-11T15:26:29;101956.00;;;19.22;29.87
62976;BME280;49071;0.000;0.000;2023-02-11T15:29:36;101952.59;;;19.18;29.67
62976;BME280;49071;0.000;0.000;2023-02-11T15:32:37;101954.41;;;19.16;29.67
62976;BME280;49071;0.000;0.000;2023-02-11T15:35:42;101946.69;;;19.10;30.10
62976;BME280;49071;0.000;0.000;2023-02-11T15:38:43;101953.91;;;19.03;30.22
62976;BME280;49071;0.000;0.000;2023-02-11T15:41:43;101955.84;;;18.98;29.96
62976;BME280;49071;0.000;0.000;2023-02-11T15:44:43;101960.44;;;18.92;30.05
62976;BME280;49071;0.000;0.000;2023-02-11T15:47:58;101966.78;;;18.84;29.94
62976;BME280;49071;0.000;0.000;2023-02-11T15:51:01;101961.78;;;18.77;30.39
62976;BME280;49071;0.000;0.000;2023-02-11T15:54:04;101961.94;;;18.69;30.56
62976;BME280;49071;0.000;0.000;2023-02-11T15:57:07;101969.22;;;18.59;30.47
62976;BME280;49071;0.000;0.000;2023-02-11T16:00:15;101965.94;;;18.53;30.69
62976;BME280;49071;0.000;0.000;2023-02-11T16:03:20;101961.66;;;18.49;30.38
62976;BME280;49071;0.000;0.000;2023-02-11T16:06:22;101971.31;;;18.48;30.80
62976;BME280;49071;0.000;0.000;2023-02-11T16:09:33;101973.03;;;18.49;30.91
62976;BME280;49071;0.000;0.000;2023-02-11T16:12:33;101968.59;;;18.51;30.62
62976;BME280;49071;0.000;0.000;2023-02-11T16:18:36;101967.56;;;18.57;30.56
62976;BME280;49071;0.000;0.000;2023-02-11T16:21:40;101978.78;;;18.62;30.58
62976;BME280;49071;0.000;0.000;2023-02-11T16:24:45;101996.94;;;18.71;30.29
62976;BME280;49071;0.000;0.000;2023-02-11T16:27:52;101994.16;;;18.77;30.17
62976;BME280;49071;0.000;0.000;2023-02-11T16:30:53;101992.16;;;18.85;30.34
62976;BME280;49071;0.000;0.000;2023-02-11T16:33:54;101999.88;;;18.92;30.18
62976;BME280;49071;0.000;0.000;2023-02-11T16:36:54;102001.31;;;19.02;30.20
62976;BME280;49071;0.000;0.000;2023-02-11T16:39:55;102007.09;;;19.13;29.95
62976;BME280;49071;0.000;0.000;2023-02-11T16:42:55;102006.06;;;19.19;29.92
62976;BME280;49071;0.000;0.000;2023-02-11T16:45:56;102019.13;;;19.22;30.21
62976;BME280;49071;0.000;0.000;2023-02-11T16:48:57;102016.50;;;19.22;30.08
62976;BME280;49071;0.000;0.000;2023-02-11T16:52:11;102020.03;;;19.21;29.92
62976;BME280;49071;0.000;0.000;2023-02-11T16:55:12;102016.59;;;19.19;30.14
62976;BME280;49071;0.000;0.000;2023-02-11T16:58:13;102028.13;;;19.13;29.95
62976;BME280;49071;0.000;0.000;2023-02-11T17:01:13;102027.44;;;19.08;29.87
62976;BME280;49071;0.000;0.000;2023-02-11T17:04:17;102025.81;;;19.04;30.03
62976;BME280;49071;0.000;0.000;2023-02-11T17:07:18;102033.91;;;18.96;30.07
62976;BME280;49071;0.000;0.000;2023-02-11T17:10:19;102039.38;;;18.90;30.20
62976;BME280;49071;0.000;0.000;2023-02-11T17:13:19;102041.31;;;18.83;30.21
62976;BME280;49071;0.000;0.000;2023-02-11T17:16:20;102046.75;;;18.76;30.37
62976;BME280;49071;0.000;0.000;2023-02-11T17:19:21;102046.97;;;18.68;30.33
62976;BME280;49071;0.000;0.000;2023-02-11T17:22:21;102059.47;;;18.60;30.68
62976;BME280;49071;0.000;0.000;2023-02-11T17:25:21;102054.38;;;18.52;30.98
62976;BME280;49071;0.000;0.000;2023-02-11T17:28:23;102064.19;;;18.47;30.67
62976;BME280;49071;0.000;0.000;2023-02-11T17:31:23;102062.34;;;18.49;30.88
62976;BME280;49071;0.000;0.000;2023-02-11T17:34:24;102074.56;;;18.52;30.83
62976;BME280;49071;0.000;0.000;2023-02-11T17:37:24;102078.81;;;18.56;30.75
62976;BME280;49071;0.000;0.000;2023-02-11T17:40:25;102081.25;;;18.63;30.88
62976;BME280;49071;0.000;0.000;2023-02-11T17:43:25;102090.66;;;18.72;30.96
62976;BME280;49071;0.000;0.000;2023-02-11T17:46:26;102103.63;;;18.80;31.02
62976;BME280;49071;0.000;0.000;2023-02-11T17:49:29;102099.84;;;18.90;30.63
62976;BME280;49071;0.000;0.000;2023-02-11T17:52:29;102105.66;;;19.00;30.73
62976;BME280;49071;0.000;0.000;2023-02-11T17:55:31;102115.16;;;19.05;30.88
62976;BME280;49071;0.000;0.000;2023-02-11T17:58:31;102120.16;;;19.15;30.86
62976;BME280;49071;0.000;0.000;2023-02-11T18:01:32;102119.75;;;19.28;30.66
62976;BME280;49071;0.000;0.000;2023-02-11T18:04:32;102134.53;;;19.32;30.62
62976;BME280;49071;0.000;0.000;2023-02-11T18:07:33;102124.88;;;19.33;30.56
62976;BME280;49071;0.000;0.000;2023-02-11T18:10:33;102125.78;;;19.32;30.23
62976;BME280;49071;0.000;0.000;2023-02-11T18:13:33;102128.50;;;19.29;30.41
62976;BME280;49071;0.000;0.000;2023-02-11T18:16:33;102140.06;;;19.23;30.23
62976;BME280;49071;0.000;0.000;2023-02-11T18:19:35;102140.16;;;19.20;30.46
62976;BME280;49071;0.000;0.000;2023-02-11T18:22:36;102143.91;;;19.11;30.63
62976;BME280;49071;0.000;0.000;2023-02-11T18:25:42;102143.19;;;19.06;30.71
62976;BME280;49071;0.000;0.000;2023-02-11T18:28:43;102145.94;;;19.02;30.81
62976;BME280;49071;0.000;0.000;2023-02-11T18:31:43;102161.81;;;18.99;30.98
62976;BME280;49071;0.000;0.000;2023-02-11T18:34:43;102177.75;;;18.93;31.04
62976;BME280;49071;0.000;0.000;2023-02-11T18:37:43;102176.19;;;18.85;31.12
62976;BME280;49071;0.000;0.000;2023-02-11T18:40:44;102185.97;;;18.80;31.40
62976;BME280;49071;0.000;0.000;2023-02-11T18:43:47;102187.94;;;18.72;31.50
62976;BME280;49071;0.000;0.000;2023-02-11T18:46:47;102193.41;;;18.63;31.72
62976;BME280;49071;0.000;0.000;2023-02-11T18:49:47;102196.19;;;18.57;31.72
62976;BME280;49071;0.000;0.000;2023-02-11T18:52:47;102199.88;;;18.50;31.47
62976;BME280;49071;0.000;0.000;2023-02-11T18:55:48;102207.91;;;18.42;31.93
62976;BME280;49071;0.000;0.000;2023-02-11T18:58:48;102209.16;;;18.27;32.09
62976;BME280;49071;0.000;0.000;2023-02-11T19:01:50;102210.03;;;18.28;32.27
62976;BME280;49071;0.000;0.000;2023-02-11T19:04:50;102208.22;;;18.30;32.15
62976;BME280;49071;0.000;0.000;2023-02-11T19:07:50;102208.03;;;18.37;32.00
62976;BME280;49071;0.000;0.000;2023-02-11T19:10:51;102211.34;;;18.46;32.15
62976;BME280;49071;0.000;0.000;2023-02-11T19:13:51;102208.63;;;18.50;32.42
62976;BME280;49071;0.000;0.000;2023-02-11T19:16:52;102210.97;;;18.61;31.85
62976;BME280;49071;0.000;0.000;2023-02-11T19:19:52;102231.78;;;18.69;32.14
62976;BME280;49071;0.000;0.000;2023-02-11T19:22:52;102236.19;;;18.68;32.19
62976;BME280;49071;0.000;0.000;2023-02-11T19:25:53;102250.03;;;18.76;32.01
62976;BME280;49071;0.000;0.000;2023-02-11T19:28:53;102250.72;;;18.84;31.98
62976;BME280;49071;0.000;0.000;2023-02-11T19:31:53;102257.47;;;18.95;32.02
62976;BME280;49071;0.000;0.000;2023-02-11T19:34:53;102265.13;;;19.04;31.96
62976;BME280;49071;0.000;0.000;2023-02-11T19:37:54;102273.63;;;19.14;31.99
62976;BME280;49071;0.000;0.000;2023-02-11T19:40:54;102270.94;;;19.15;31.63
62976;BME280;49071;0.000;0.000;2023-02-11T19:43:55;102274.44;;;19.16;31.86
62976;BME280;49071;0.000;0.000;2023-02-11T19:46:55;102277.91;;;19.18;31.78
62976;BME280;49071;0.000;0.000;2023-02-11T19:49:55;102280.63;;;19.13;31.48
62976;BME280;49071;0.000;0.000;2023-02-11T19:52:56;102273.81;;;19.06;31.63
62976;BME280;49071;0.000;0.000;2023-02-11T19:55:59;102277.59;;;18.96;31.86
62976;BME280;49071;0.000;0.000;2023-02-11T19:59:00;102277.59;;;18.96;31.80
62976;BME280;49071;0.000;0.000;2023-02-11T20:02:00;102275.88;;;18.93;31.67
62976;BME280;49071;0.000;0.000;2023-02-11T20:05:00;102276.94;;;18.87;31.82
62976;BME280;49071;0.000;0.000;2023-02-11T20:08:02;102274.44;;;18.81;31.80
62976;BME280;49071;0.000;0.000;2023-02-11T20:11:07;102278.13;;;18.74;32.04
62976;BME280;49071;0.000;0.000;2023-02-11T20:14:07;102272.97;;;18.68;31.95
62976;BME280;49071;0.000;0.000;2023-02-11T20:17:10;102278.38;;;18.62;32.20
62976;BME280;49071;0.000;0.000;2023-02-11T20:20:10;102282.06;;;18.55;32.11
62976;BME280;49071;0.000;0.000;2023-02-11T20:23:11;102295.34;;;18.49;32.64
62976;BME280;49071;0.000;0.000;2023-02-11T20:26:13;102299.81;;;18.45;32.61
62976;BME280;49071;0.000;0.000;2023-02-11T20:29:17;102299.13;;;18.37;32.33
62976;BME280;49071;0.000;0.000;2023-02-11T20:32:17;102305.44;;;18.28;32.50
62976;BME280;49071;0.000;0.000;2023-02-11T20:35:17;102310.81;;;18.24;32.67
62976;BME280;49071;0.000;0.000;2023-02-11T20:38:17;102316.00;;;18.25;32.95
62976;BME280;49071;0.000;0.000;2023-02-11T20:41:19;102319.41;;;18.30;32.75
62976;BME280;49071;0.000;0.000;2023-02-11T20:44:19;102330.59;;;18.38;32.46
62976;BME280;49071;0.000;0.000;2023-02-11T20:47:23;102326.06;;;18.47;32.89
62976;BME280;49071;0.000;0.000;2023-02-11T20:50:23;102340.81;;;18.52;32.47
62976;BME280;49071;0.000;0.000;2023-02-11T20:53:23;102341.53;;;18.59;32.66
62976;BME280;49071;0.000;0.000;2023-02-11T20:56:27;102332.66;;;18.64;32.57
62976;BME280;49071;0.000;0.000;2023-02-11T20:59:28;102338.69;;;18.70;32.36
